Andromeda Voyager — C6FZ6 — position and weather

sailwx.info

Track history (hours):
 
Tides and Currents Weather Stations Pressure Air Temp Water Temp Dewpoint Dewpoint Depression Visibility Wind Speed Wind Dir Waves Ship Positions

Andromeda Voyager

Last reported at 2017-Oct-21 02:06 UTC. Time now 2017-Nov-23 01:49 UTC.
Position N 01°18' E 103°20'.
Warning: this ship's position is 32 days out of date.

Type: Tanker. MMSI: 311732000.

Date/timePositionNaut miles runAvg speedWind from/ knotsBaromVisibWave heightAir tempDewpointWater temp
2017-Oct-21 02:06N 01°18' E 103°20'110.2
2017-Oct-21 01:58N 01°17' E 103°22'510.4
2017-Oct-21 01:29N 01°14' E 103°26'611.4
2017-Oct-21 01:00N 01°13' E 103°31'4 8.6
2017-Oct-21 00:30N 01°12' E 103°35'2 4.6
2017-Oct-20 23:59N 01°11' E 103°37'5 9.5
2017-Oct-20 23:30N 01°10' E 103°42'612.1
2017-Oct-20 23:00N 01°10' E 103°48'713.3
2017-Oct-20 22:30N 01°13' E 103°54'713.3
2017-Oct-20 21:58N 01°16' E 104°01'613.4
2017-Oct-20 21:30N 01°17' E 104°07'7 8.9
2017-Oct-20 20:41N 01°18' E 104°14'  
Track history (hours):
 
Tides and Currents Weather Stations Pressure Air Temp Water Temp Dewpoint Dewpoint Depression Visibility Wind Speed Wind Dir Waves Ship Positions

Andromeda Voyager

Last reported at 2017-Oct-21 02:06 UTC. Time now 2017-Nov-23 01:49 UTC.
Position N 01°18' E 103°20'.
Warning: this ship's position is 32 days out of date.

Type: Tanker. MMSI: 311732000.

Date/timePositionNaut miles runAvg speedWind from/ knotsBaromVisibWave heightAir tempDewpointWater temp
2017-Oct-21 02:06N 01°18' E 103°20'110.2
2017-Oct-21 01:58N 01°17' E 103°22'510.4
2017-Oct-21 01:29N 01°14' E 103°26'611.4
2017-Oct-21 01:00N 01°13' E 103°31'4 8.6
2017-Oct-21 00:30N 01°12' E 103°35'2 4.6
2017-Oct-20 23:59N 01°11' E 103°37'5 9.5
2017-Oct-20 23:30N 01°10' E 103°42'612.1
2017-Oct-20 23:00N 01°10' E 103°48'713.3
2017-Oct-20 22:30N 01°13' E 103°54'713.3
2017-Oct-20 21:58N 01°16' E 104°01'613.4
2017-Oct-20 21:30N 01°17' E 104°07'7 8.9
2017-Oct-20 20:41N 01°18' E 104°14'  

Dump ship's entire track history